sensor_id;sensor_type;location;lat;lon;timestamp;pressure;altitude;pressure_sealevel;temperature;humidity
56807;BME280;42687;42.524;12.052;2023-05-12T00:00:59;96327.22;;;8.62;100.00
56807;BME280;42687;42.524;12.052;2023-05-12T00:03:25;96374.81;;;8.86;100.00
56807;BME280;42687;42.524;12.052;2023-05-12T00:05:51;96366.06;;;8.85;100.00
56807;BME280;42687;42.524;12.052;2023-05-12T00:08:17;96383.25;;;8.91;100.00
56807;BME280;42687;42.524;12.052;2023-05-12T00:10:43;96382.38;;;8.91;100.00
56807;BME280;42687;42.524;12.052;2023-05-12T00:13:08;96385.09;;;8.89;100.00
56807;BME280;42687;42.524;12.052;2023-05-12T00:15:36;96381.06;;;8.83;100.00
56807;BME280;42687;42.524;12.052;2023-05-12T00:18:02;96375.06;;;8.81;100.00
56807;BME280;42687;42.524;12.052;2023-05-12T00:20:27;96382.00;;;8.82;100.00
56807;BME280;42687;42.524;12.052;2023-05-12T00:22:53;96300.94;;;8.31;100.00
56807;BME280;42687;42.524;12.052;2023-05-12T00:25:19;96362.75;;;8.67;100.00
56807;BME280;42687;42.524;12.052;2023-05-12T00:27:44;96347.78;;;8.54;100.00
56807;BME280;42687;42.524;12.052;2023-05-12T00:30:10;96367.97;;;8.67;100.00
56807;BME280;42687;42.524;12.052;2023-05-12T00:32:36;96357.75;;;8.63;100.00
56807;BME280;42687;42.524;12.052;2023-05-12T00:35:02;96370.03;;;8.62;100.00
56807;BME280;42687;42.524;12.052;2023-05-12T00:37:28;96375.06;;;8.65;100.00
56807;BME280;42687;42.524;12.052;2023-05-12T00:39:54;96378.63;;;8.64;100.00
56807;BME280;42687;42.524;12.052;2023-05-12T00:42:19;96368.00;;;8.51;100.00
56807;BME280;42687;42.524;12.052;2023-05-12T00:44:45;96371.84;;;8.44;100.00
56807;BME280;42687;42.524;12.052;2023-05-12T00:47:12;96365.28;;;8.37;100.00
56807;BME280;42687;42.524;12.052;2023-05-12T00:49:38;96378.47;;;8.35;100.00
56807;BME280;42687;42.524;12.052;2023-05-12T00:52:07;96378.97;;;8.26;100.00
56807;BME280;42687;42.524;12.052;2023-05-12T00:54:34;96383.03;;;8.32;100.00
56807;BME280;42687;42.524;12.052;2023-05-12T00:57:01;96387.25;;;8.34;100.00
56807;BME280;42687;42.524;12.052;2023-05-12T00:59:26;96384.97;;;8.28;100.00
56807;BME280;42687;42.524;12.052;2023-05-12T01:01:55;96369.41;;;8.25;100.00
56807;BME280;42687;42.524;12.052;2023-05-12T01:04:21;96377.00;;;8.30;100.00
56807;BME280;42687;42.524;12.052;2023-05-12T01:09:18;96392.13;;;8.41;100.00
56807;BME280;42687;42.524;12.052;2023-05-12T01:11:44;96378.28;;;8.39;100.00
56807;BME280;42687;42.524;12.052;2023-05-12T01:14:09;96366.63;;;8.28;100.00
56807;BME280;42687;42.524;12.052;2023-05-12T01:16:40;96367.31;;;8.32;100.00
56807;BME280;42687;42.524;12.052;2023-05-12T01:21:55;96351.81;;;8.27;100.00
56807;BME280;42687;42.524;12.052;2023-05-12T01:24:23;96347.69;;;8.23;100.00
56807;BME280;42687;42.524;12.052;2023-05-12T01:26:51;96349.72;;;8.18;100.00
56807;BME280;42687;42.524;12.052;2023-05-12T01:29:18;96353.28;;;8.17;100.00
56807;BME280;42687;42.524;12.052;2023-05-12T01:31:45;96351.50;;;8.17;100.00
56807;BME280;42687;42.524;12.052;2023-05-12T01:34:15;96351.50;;;8.17;100.00
56807;BME280;42687;42.524;12.052;2023-05-12T01:36:43;96354.13;;;8.17;100.00
56807;BME280;42687;42.524;12.052;2023-05-12T01:39:09;96360.69;;;8.25;100.00
56807;BME280;42687;42.524;12.052;2023-05-12T01:41:34;96359.19;;;8.21;100.00
56807;BME280;42687;42.524;12.052;2023-05-12T01:44:01;96353.78;;;8.24;100.00
56807;BME280;42687;42.524;12.052;2023-05-12T01:46:26;96347.88;;;8.20;100.00
56807;BME280;42687;42.524;12.052;2023-05-12T01:48:52;96346.44;;;8.30;100.00
56807;BME280;42687;42.524;12.052;2023-05-12T01:51:18;96342.88;;;8.31;100.00
56807;BME280;42687;42.524;12.052;2023-05-12T01:53:43;96367.41;;;8.46;100.00
56807;BME280;42687;42.524;12.052;2023-05-12T01:56:09;96362.78;;;8.51;100.00
56807;BME280;42687;42.524;12.052;2023-05-12T01:58:35;96360.38;;;8.63;100.00
56807;BME280;42687;42.524;12.052;2023-05-12T02:01:00;96349.13;;;8.61;100.00
56807;BME280;42687;42.524;12.052;2023-05-12T02:03:26;96347.75;;;8.70;100.00
56807;BME280;42687;42.524;12.052;2023-05-12T02:05:52;96347.84;;;8.68;100.00
56807;BME280;42687;42.524;12.052;2023-05-12T02:08:17;96350.28;;;8.71;100.00
56807;BME280;42687;42.524;12.052;2023-05-12T02:10:43;96349.44;;;8.71;100.00
56807;BME280;42687;42.524;12.052;2023-05-12T02:13:08;96352.84;;;8.73;100.00
56807;BME280;42687;42.524;12.052;2023-05-12T02:15:34;96356.38;;;8.72;100.00
56807;BME280;42687;42.524;12.052;2023-05-12T02:18:00;96345.50;;;8.63;100.00
56807;BME280;42687;42.524;12.052;2023-05-12T02:20:25;96357.66;;;8.64;100.00
56807;BME280;42687;42.524;12.052;2023-05-12T02:22:53;96338.81;;;8.58;100.00
56807;BME280;42687;42.524;12.052;2023-05-12T02:25:19;96359.44;;;8.64;100.00
56807;BME280;42687;42.524;12.052;2023-05-12T02:27:45;96357.75;;;8.63;100.00
56807;BME280;42687;42.524;12.052;2023-05-12T02:30:11;96361.88;;;8.67;100.00
56807;BME280;42687;42.524;12.052;2023-05-12T02:32:37;96350.22;;;8.57;100.00
56807;BME280;42687;42.524;12.052;2023-05-12T02:35:03;96351.56;;;8.64;100.00
56807;BME280;42687;42.524;12.052;2023-05-12T02:37:28;96356.63;;;8.67;100.00
56807;BME280;42687;42.524;12.052;2023-05-12T02:39:54;96347.34;;;8.61;100.00
56807;BME280;42687;42.524;12.052;2023-05-12T02:42:20;96352.69;;;8.60;100.00
56807;BME280;42687;42.524;12.052;2023-05-12T02:44:45;96280.78;;;8.17;100.00
56807;BME280;42687;42.524;12.052;2023-05-12T02:47:11;96349.19;;;8.59;100.00
56807;BME280;42687;42.524;12.052;2023-05-12T02:49:37;96346.69;;;8.58;100.00
56807;BME280;42687;42.524;12.052;2023-05-12T02:52:03;96350.81;;;8.62;100.00
56807;BME280;42687;42.524;12.052;2023-05-12T02:54:28;96341.81;;;8.51;100.00
56807;BME280;42687;42.524;12.052;2023-05-12T02:56:54;96351.19;;;8.56;100.00
56807;BME280;42687;42.524;12.052;2023-05-12T02:59:22;96354.91;;;8.51;100.00
56807;BME280;42687;42.524;12.052;2023-05-12T03:01:48;96362.78;;;8.51;100.00
56807;BME280;42687;42.524;12.052;2023-05-12T03:04:13;96340.69;;;8.40;100.00
56807;BME280;42687;42.524;12.052;2023-05-12T03:06:39;96354.13;;;8.49;100.00
56807;BME280;42687;42.524;12.052;2023-05-12T03:09:05;96364.19;;;8.57;100.00
56807;BME280;42687;42.524;12.052;2023-05-12T03:11:31;96351.09;;;8.57;100.00
56807;BME280;42687;42.524;12.052;2023-05-12T03:13:56;96349.19;;;8.59;100.00
56807;BME280;42687;42.524;12.052;2023-05-12T03:16:22;96348.72;;;8.52;100.00
56807;BME280;42687;42.524;12.052;2023-05-12T03:18:48;96351.00;;;8.59;100.00
56807;BME280;42687;42.524;12.052;2023-05-12T03:21:13;96351.75;;;8.61;100.00
56807;BME280;42687;42.524;12.052;2023-05-12T03:23:39;96340.31;;;8.62;100.00
56807;BME280;42687;42.524;12.052;2023-05-12T03:26:05;96335.84;;;8.64;100.00
56807;BME280;42687;42.524;12.052;2023-05-12T03:28:30;96342.69;;;8.66;100.00
56807;BME280;42687;42.524;12.052;2023-05-12T03:30:56;96345.41;;;8.65;100.00
56807;BME280;42687;42.524;12.052;2023-05-12T03:33:22;96353.38;;;8.63;100.00
56807;BME280;42687;42.524;12.052;2023-05-12T03:35:47;96348.38;;;8.59;100.00
56807;BME280;42687;42.524;12.052;2023-05-12T03:38:13;96348.38;;;8.59;100.00
56807;BME280;42687;42.524;12.052;2023-05-12T03:40:39;96332.91;;;8.54;100.00
56807;BME280;42687;42.524;12.052;2023-05-12T03:43:05;96341.44;;;8.58;100.00
56807;BME280;42687;42.524;12.052;2023-05-12T03:45:30;96259.25;;;8.12;100.00
56807;BME280;42687;42.524;12.052;2023-05-12T03:47:56;96340.25;;;8.63;100.00
56807;BME280;42687;42.524;12.052;2023-05-12T03:50:22;96329.84;;;8.62;100.00
56807;BME280;42687;42.524;12.052;2023-05-12T03:52:48;96338.97;;;8.71;100.00
56807;BME280;42687;42.524;12.052;2023-05-12T03:55:14;96339.72;;;8.73;100.00
56807;BME280;42687;42.524;12.052;2023-05-12T03:57:39;96321.63;;;8.68;100.00
56807;BME280;42687;42.524;12.052;2023-05-12T04:00:05;96338.34;;;8.81;100.00
56807;BME280;42687;42.524;12.052;2023-05-12T04:02:31;96330.66;;;8.78;100.00
56807;BME280;42687;42.524;12.052;2023-05-12T04:04:57;96339.19;;;8.82;100.00
56807;BME280;42687;42.524;12.052;2023-05-12T04:07:23;96330.56;;;8.80;100.00
56807;BME280;42687;42.524;12.052;2023-05-12T04:09:48;96326.34;;;8.77;100.00
56807;BME280;42687;42.524;12.052;2023-05-12T04:12:14;96329.66;;;8.81;100.00
56807;BME280;42687;42.524;12.052;2023-05-12T04:14:40;96332.84;;;8.86;100.00
56807;BME280;42687;42.524;12.052;2023-05-12T04:17:06;96336.78;;;8.93;100.00
56807;BME280;42687;42.524;12.052;2023-05-12T04:19:32;96353.69;;;9.04;100.00
56807;BME280;42687;42.524;12.052;2023-05-12T04:21:57;96349.94;;;9.08;100.00
56807;BME280;42687;42.524;12.052;2023-05-12T04:24:23;96347.69;;;9.16;100.00
56807;BME280;42687;42.524;12.052;2023-05-12T04:26:49;96353.91;;;9.29;100.00
56807;BME280;42687;42.524;12.052;2023-05-12T04:29:15;96353.56;;;9.35;100.00
56807;BME280;42687;42.524;12.052;2023-05-12T04:31:41;96359.94;;;9.46;100.00
56807;BME280;42687;42.524;12.052;2023-05-12T04:34:06;96363.03;;;9.52;100.00
56807;BME280;42687;42.524;12.052;2023-05-12T04:36:32;96366.22;;;9.58;100.00
56807;BME280;42687;42.524;12.052;2023-05-12T04:38:58;96353.38;;;9.53;100.00
56807;BME280;42687;42.524;12.052;2023-05-12T04:41:24;96359.56;;;9.66;100.00
56807;BME280;42687;42.524;12.052;2023-05-12T04:43:49;96362.94;;;9.68;100.00
56807;BME280;42687;42.524;12.052;2023-05-12T04:46:15;96365.56;;;9.68;100.00
56807;BME280;42687;42.524;12.052;2023-05-12T04:48:41;96356.66;;;9.71;100.00
56807;BME280;42687;42.524;12.052;2023-05-12T04:51:08;96360.59;;;9.78;100.00
56807;BME280;42687;42.524;12.052;2023-05-12T04:53:33;96361.72;;;9.74;100.00
56807;BME280;42687;42.524;12.052;2023-05-12T04:56:01;96367.06;;;9.73;100.00
56807;BME280;42687;42.524;12.052;2023-05-12T04:58:27;96360.78;;;9.61;100.00
56807;BME280;42687;42.524;12.052;2023-05-12T05:00:53;96379.94;;;9.63;100.00
56807;BME280;42687;42.524;12.052;2023-05-12T05:03:19;96379.38;;;9.58;100.00
56807;BME280;42687;42.524;12.052;2023-05-12T05:05:44;96358.53;;;9.55;100.00
56807;BME280;42687;42.524;12.052;2023-05-12T05:08:10;96381.22;;;9.70;100.00
56807;BME280;42687;42.524;12.052;2023-05-12T05:10:36;96382.53;;;9.77;100.00
56807;BME280;42687;42.524;12.052;2023-05-12T05:13:01;96386.28;;;9.88;100.00
56807;BME280;42687;42.524;12.052;2023-05-12T05:15:27;96379.06;;;9.91;100.00
56807;BME280;42687;42.524;12.052;2023-05-12T05:17:53;96372.91;;;9.92;100.00
56807;BME280;42687;42.524;12.052;2023-05-12T05:20:18;96375.13;;;9.98;100.00
56807;BME280;42687;42.524;12.052;2023-05-12T05:22:44;96385.63;;;10.13;100.00
56807;BME280;42687;42.524;12.052;2023-05-12T05:25:10;96387.13;;;10.17;100.00
56807;BME280;42687;42.524;12.052;2023-05-12T05:27:36;96378.47;;;10.29;100.00
56807;BME280;42687;42.524;12.052;2023-05-12T05:30:05;96382.88;;;10.43;100.00
56807;BME280;42687;42.524;12.052;2023-05-12T05:32:34;96382.63;;;10.61;100.00
56807;BME280;42687;42.524;12.052;2023-05-12T05:35:01;96382.09;;;10.83;100.00
56807;BME280;42687;42.524;12.052;2023-05-12T05:37:27;96377.28;;;10.90;100.00
56807;BME280;42687;42.524;12.052;2023-05-12T05:39:53;96386.47;;;10.97;100.00
56807;BME280;42687;42.524;12.052;2023-05-12T05:42:18;96373.59;;;10.92;100.00
56807;BME280;42687;42.524;12.052;2023-05-12T05:44:44;96375.09;;;10.96;100.00
56807;BME280;42687;42.524;12.052;2023-05-12T05:47:10;96386.03;;;11.03;100.00
56807;BME280;42687;42.524;12.052;2023-05-12T05:49:35;96379.44;;;11.10;100.00
56807;BME280;42687;42.524;12.052;2023-05-12T05:52:01;96389.78;;;11.26;100.00
56807;BME280;42687;42.524;12.052;2023-05-12T05:54:27;96386.53;;;11.48;100.00
56807;BME280;42687;42.524;12.052;2023-05-12T05:56:53;96390.34;;;12.22;100.00
56807;BME280;42687;42.524;12.052;2023-05-12T05:59:18;96393.38;;;12.90;100.00
56807;BME280;42687;42.524;12.052;2023-05-12T06:01:44;96386.22;;;12.92;100.00
56807;BME280;42687;42.524;12.052;2023-05-12T06:04:10;96404.06;;;12.88;100.00
56807;BME280;42687;42.524;12.052;2023-05-12T06:06:36;96386.59;;;12.74;100.00
56807;BME280;42687;42.524;12.052;2023-05-12T06:09:02;96398.00;;;12.99;100.00
56807;BME280;42687;42.524;12.052;2023-05-12T06:11:27;96409.44;;;13.11;100.00
56807;BME280;42687;42.524;12.052;2023-05-12T06:13:53;96402.13;;;13.39;100.00
56807;BME280;42687;42.524;12.052;2023-05-12T06:16:19;96400.00;;;13.44;100.00
56807;BME280;42687;42.524;12.052;2023-05-12T06:18:44;96408.06;;;13.29;100.00
56807;BME280;42687;42.524;12.052;2023-05-12T06:21:10;96401.91;;;13.17;100.00
56807;BME280;42687;42.524;12.052;2023-05-12T06:23:36;96408.63;;;13.22;100.00
56807;BME280;42687;42.524;12.052;2023-05-12T06:26:01;96419.44;;;13.18;100.00
56807;BME280;42687;42.524;12.052;2023-05-12T06:28:27;96408.50;;;13.12;100.00
56807;BME280;42687;42.524;12.052;2023-05-12T06:30:53;96412.59;;;13.16;100.00
56807;BME280;42687;42.524;12.052;2023-05-12T06:33:18;96409.09;;;13.98;100.00
56807;BME280;42687;42.524;12.052;2023-05-12T06:35:44;96405.38;;;14.23;100.00
56807;BME280;42687;42.524;12.052;2023-05-12T06:38:10;96419.06;;;14.40;100.00
56807;BME280;42687;42.524;12.052;2023-05-12T06:40:35;96407.50;;;14.52;100.00
56807;BME280;42687;42.524;12.052;2023-05-12T06:43:01;96356.06;;;14.33;100.00
56807;BME280;42687;42.524;12.052;2023-05-12T06:45:27;96409.91;;;14.55;100.00
56807;BME280;42687;42.524;12.052;2023-05-12T06:47:52;96422.09;;;14.35;100.00
56807;BME280;42687;42.524;12.052;2023-05-12T06:50:18;96427.25;;;14.25;100.00
56807;BME280;42687;42.524;12.052;2023-05-12T06:52:44;96418.94;;;14.52;100.00
56807;BME280;42687;42.524;12.052;2023-05-12T06:55:11;96422.38;;;15.31;100.00
56807;BME280;42687;42.524;12.052;2023-05-12T06:57:37;96420.84;;;15.49;100.00
56807;BME280;42687;42.524;12.052;2023-05-12T07:00:03;96438.06;;;15.23;99.26
56807;BME280;42687;42.524;12.052;2023-05-12T07:02:29;96427.09;;;14.83;98.74
56807;BME280;42687;42.524;12.052;2023-05-12T07:04:55;96430.00;;;14.80;97.03
56807;BME280;42687;42.524;12.052;2023-05-12T07:07:21;96420.03;;;14.50;96.70
56807;BME280;42687;42.524;12.052;2023-05-12T07:09:47;96438.06;;;14.33;96.43
56807;BME280;42687;42.524;12.052;2023-05-12T07:12:12;96427.97;;;14.27;96.00
56807;BME280;42687;42.524;12.052;2023-05-12T07:14:38;96444.66;;;14.28;95.88
56807;BME280;42687;42.524;12.052;2023-05-12T07:17:04;96439.38;;;14.50;94.80
56807;BME280;42687;42.524;12.052;2023-05-12T07:19:30;96442.84;;;14.62;93.42
56807;BME280;42687;42.524;12.052;2023-05-12T07:21:56;96444.31;;;14.55;93.11
56807;BME280;42687;42.524;12.052;2023-05-12T07:24:23;96446.00;;;14.45;92.82
56807;BME280;42687;42.524;12.052;2023-05-12T07:26:49;96400.09;;;14.23;92.09
56807;BME280;42687;42.524;12.052;2023-05-12T07:29:15;96440.34;;;14.72;91.25
56807;BME280;42687;42.524;12.052;2023-05-12T07:31:42;96434.34;;;14.70;91.32
56807;BME280;42687;42.524;12.052;2023-05-12T07:34:07;96435.44;;;15.11;90.71
56807;BME280;42687;42.524;12.052;2023-05-12T07:36:33;96444.06;;;15.57;89.38
56807;BME280;42687;42.524;12.052;2023-05-12T07:39:00;96426.03;;;16.24;88.11
56807;BME280;42687;42.524;12.052;2023-05-12T07:41:25;96427.03;;;17.24;87.04
56807;BME280;42687;42.524;12.052;2023-05-12T07:43:51;96430.78;;;17.12;88.59
56807;BME280;42687;42.524;12.052;2023-05-12T07:46:16;96435.81;;;16.95;86.91
56807;BME280;42687;42.524;12.052;2023-05-12T07:48:42;96418.50;;;17.50;84.31
56807;BME280;42687;42.524;12.052;2023-05-12T07:51:08;96425.53;;;18.28;81.37
56807;BME280;42687;42.524;12.052;2023-05-12T07:53:33;96430.38;;;18.42;81.80
56807;BME280;42687;42.524;12.052;2023-05-12T07:55:59;96432.28;;;18.12;82.71
56807;BME280;42687;42.524;12.052;2023-05-12T07:58:25;96436.25;;;17.59;83.93
56807;BME280;42687;42.524;12.052;2023-05-12T08:00:50;96430.25;;;17.38;84.26
56807;BME280;42687;42.524;12.052;2023-05-12T08:03:16;96434.00;;;17.15;84.74
56807;BME280;42687;42.524;12.052;2023-05-12T08:05:42;96392.63;;;17.32;84.59
56807;BME280;42687;42.524;12.052;2023-05-12T08:08:07;96405.63;;;16.96;85.26
56807;BME280;42687;42.524;12.052;2023-05-12T08:10:43;96412.75;;;17.06;83.67
56807;BME280;42687;42.524;12.052;2023-05-12T08:13:09;96419.44;;;17.78;84.17
56807;BME280;42687;42.524;12.052;2023-05-12T08:15:35;96410.84;;;18.79;80.07
56807;BME280;42687;42.524;12.052;2023-05-12T08:18:00;96418.63;;;18.63;82.40
56807;BME280;42687;42.524;12.052;2023-05-12T08:20:26;96428.91;;;18.20;84.11
56807;BME280;42687;42.524;12.052;2023-05-12T08:22:52;96427.81;;;18.03;84.51
56807;BME280;42687;42.524;12.052;2023-05-12T08:25:17;96420.75;;;18.59;81.84
56807;BME280;42687;42.524;12.052;2023-05-12T08:27:43;96410.06;;;19.15;81.77
56807;BME280;42687;42.524;12.052;2023-05-12T08:30:10;96416.63;;;19.57;80.00
56807;BME280;42687;42.524;12.052;2023-05-12T08:32:35;96423.94;;;19.00;80.46
56807;BME280;42687;42.524;12.052;2023-05-12T08:35:02;96422.41;;;18.32;82.44
56807;BME280;42687;42.524;12.052;2023-05-12T08:37:28;96404.06;;;18.85;79.78
56807;BME280;42687;42.524;12.052;2023-05-12T08:39:54;96411.59;;;19.17;80.27
56807;BME280;42687;42.524;12.052;2023-05-12T08:44:55;96406.28;;;17.87;81.51
56807;BME280;42687;42.524;12.052;2023-05-12T08:47:22;96404.78;;;17.64;80.78
56807;BME280;42687;42.524;12.052;2023-05-12T08:49:58;96407.44;;;17.06;81.26
56807;BME280;42687;42.524;12.052;2023-05-12T08:52:25;96424.09;;;16.67;81.65
56807;BME280;42687;42.524;12.052;2023-05-12T08:54:51;96430.75;;;16.21;82.67
56807;BME280;42687;42.524;12.052;2023-05-12T08:57:19;96428.94;;;15.69;82.68
56807;BME280;42687;42.524;12.052;2023-05-12T08:59:46;96379.34;;;15.06;83.03
56807;BME280;42687;42.524;12.052;2023-05-12T09:02:13;96429.63;;;15.71;82.53
56807;BME280;42687;42.524;12.052;2023-05-12T09:04:41;96422.59;;;16.03;82.81
56807;BME280;42687;42.524;12.052;2023-05-12T09:07:07;96434.03;;;16.03;84.04
56807;BME280;42687;42.524;12.052;2023-05-12T09:09:34;96444.72;;;15.92;84.01
56807;BME280;42687;42.524;12.052;2023-05-12T09:12:01;96435.56;;;15.63;84.12
56807;BME280;42687;42.524;12.052;2023-05-12T09:14:30;96428.25;;;15.34;84.29
56807;BME280;42687;42.524;12.052;2023-05-12T09:17:02;96435.16;;;15.14;84.66
56807;BME280;42687;42.524;12.052;2023-05-12T09:19:29;96444.78;;;14.83;84.76
56807;BME280;42687;42.524;12.052;2023-05-12T09:21:55;96455.03;;;14.54;84.81
56807;BME280;42687;42.524;12.052;2023-05-12T09:24:33;96456.09;;;14.17;84.96
56807;BME280;42687;42.524;12.052;2023-05-12T09:26:59;96461.97;;;13.98;84.83
56807;BME280;42687;42.524;12.052;2023-05-12T09:29:25;96458.03;;;13.68;85.05
56807;BME280;42687;42.524;12.052;2023-05-12T09:31:52;96472.19;;;13.56;85.17
56807;BME280;42687;42.524;12.052;2023-05-12T09:34:26;96460.84;;;13.42;85.31
56807;BME280;42687;42.524;12.052;2023-05-12T09:37:00;96442.72;;;13.25;85.06
56807;BME280;42687;42.524;12.052;2023-05-12T09:39:27;96441.69;;;13.03;85.16
56807;BME280;42687;42.524;12.052;2023-05-12T09:41:53;96452.91;;;12.94;85.54
56807;BME280;42687;42.524;12.052;2023-05-12T09:44:20;96445.59;;;12.73;85.89
56807;BME280;42687;42.524;12.052;2023-05-12T09:46:47;96442.13;;;12.60;86.06
56807;BME280;42687;42.524;12.052;2023-05-12T09:49:20;96456.91;;;12.62;86.43
56807;BME280;42687;42.524;12.052;2023-05-12T09:51:52;96457.13;;;12.59;86.67
56807;BME280;42687;42.524;12.052;2023-05-12T09:54:29;96449.09;;;12.61;86.85
56807;BME280;42687;42.524;12.052;2023-05-12T09:57:00;96458.56;;;12.76;86.66
56807;BME280;42687;42.524;12.052;2023-05-12T09:59:33;96454.75;;;12.80;86.37
56807;BME280;42687;42.524;12.052;2023-05-12T10:02:02;96444.03;;;12.95;86.26
56807;BME280;42687;42.524;12.052;2023-05-12T10:04:40;96452.47;;;13.24;86.29
56807;BME280;42687;42.524;12.052;2023-05-12T10:07:09;96441.19;;;13.58;86.20
56807;BME280;42687;42.524;12.052;2023-05-12T10:09:37;96445.00;;;13.89;86.07
56807;BME280;42687;42.524;12.052;2023-05-12T10:12:07;96441.06;;;14.17;85.85
56807;BME280;42687;42.524;12.052;2023-05-12T10:14:34;96431.44;;;14.62;85.26
56807;BME280;42687;42.524;12.052;2023-05-12T10:17:00;96422.81;;;15.36;85.29
56807;BME280;42687;42.524;12.052;2023-05-12T10:19:29;96431.00;;;16.08;84.18
56807;BME280;42687;42.524;12.052;2023-05-12T10:21:59;96437.56;;;16.85;82.54
56807;BME280;42687;42.524;12.052;2023-05-12T10:24:26;96438.19;;;17.96;80.69
56807;BME280;42687;42.524;12.052;2023-05-12T10:26:54;96431.50;;;19.23;78.93
56807;BME280;42687;42.524;12.052;2023-05-12T10:29:21;96345.53;;;19.47;77.56
56807;BME280;42687;42.524;12.052;2023-05-12T10:31:58;96418.72;;;20.76;75.79
56807;BME280;42687;42.524;12.052;2023-05-12T10:34:43;96435.13;;;21.57;74.20
56807;BME280;42687;42.524;12.052;2023-05-12T10:37:10;96435.22;;;21.14;75.50
56807;BME280;42687;42.524;12.052;2023-05-12T10:39:36;96428.34;;;21.04;75.83
56807;BME280;42687;42.524;12.052;2023-05-12T10:42:10;96432.81;;;21.54;75.20
56807;BME280;42687;42.524;12.052;2023-05-12T10:44:53;96430.78;;;21.81;74.88
56807;BME280;42687;42.524;12.052;2023-05-12T10:47:35;96434.06;;;22.41;74.19
56807;BME280;42687;42.524;12.052;2023-05-12T10:50:01;96442.03;;;22.65;74.10
56807;BME280;42687;42.524;12.052;2023-05-12T10:52:27;96434.88;;;22.58;73.75
56807;BME280;42687;42.524;12.052;2023-05-12T10:54:59;96442.09;;;22.49;74.55
56807;BME280;42687;42.524;12.052;2023-05-12T10:57:25;96450.44;;;22.54;75.25
56807;BME280;42687;42.524;12.052;2023-05-12T10:59:56;96434.56;;;22.44;75.39
56807;BME280;42687;42.524;12.052;2023-05-12T11:02:23;96438.88;;;22.62;74.51
56807;BME280;42687;42.524;12.052;2023-05-12T11:07:24;96443.25;;;21.39;77.14
56807;BME280;42687;42.524;12.052;2023-05-12T11:09:51;96441.81;;;20.25;78.94
56807;BME280;42687;42.524;12.052;2023-05-12T11:12:17;96459.97;;;19.23;80.56
56807;BME280;42687;42.524;12.052;2023-05-12T11:14:44;96458.28;;;18.66;81.26
56807;BME280;42687;42.524;12.052;2023-05-12T11:17:11;96461.66;;;18.30;82.29
56807;BME280;42687;42.524;12.052;2023-05-12T11:19:38;96460.13;;;18.18;81.90
56807;BME280;42687;42.524;12.052;2023-05-12T11:22:05;96473.69;;;18.25;81.46
56807;BME280;42687;42.524;12.052;2023-05-12T11:24:36;96463.88;;;18.73;79.54
56807;BME280;42687;42.524;12.052;2023-05-12T11:27:03;96425.97;;;18.79;78.22
56807;BME280;42687;42.524;12.052;2023-05-12T11:29:30;96463.41;;;18.77;78.37
56807;BME280;42687;42.524;12.052;2023-05-12T11:31:56;96468.81;;;18.20;79.67
56807;BME280;42687;42.524;12.052;2023-05-12T11:34:24;96461.44;;;17.94;79.98
56807;BME280;42687;42.524;12.052;2023-05-12T11:36:52;96457.25;;;17.72;80.29
56807;BME280;42687;42.524;12.052;2023-05-12T11:39:23;96457.47;;;18.28;78.51
56807;BME280;42687;42.524;12.052;2023-05-12T11:41:49;96455.72;;;18.74;76.48
56807;BME280;42687;42.524;12.052;2023-05-12T11:44:16;96454.38;;;18.88;76.08
56807;BME280;42687;42.524;12.052;2023-05-12T11:47:10;96457.06;;;18.88;75.82
56807;BME280;42687;42.524;12.052;2023-05-12T11:49:49;96476.50;;;19.26;75.23
56807;BME280;42687;42.524;12.052;2023-05-12T11:52:16;96462.19;;;19.27;76.01
56807;BME280;42687;42.524;12.052;2023-05-12T11:54:58;96463.78;;;18.92;75.41
56807;BME280;42687;42.524;12.052;2023-05-12T11:57:33;96453.56;;;19.33;75.21
56807;BME280;42687;42.524;12.052;2023-05-12T12:00:07;96464.38;;;19.14;75.48
56807;BME280;42687;42.524;12.052;2023-05-12T12:02:34;96419.81;;;18.13;75.25
56807;BME280;42687;42.524;12.052;2023-05-12T12:05:01;96463.84;;;17.68;77.49
56807;BME280;42687;42.524;12.052;2023-05-12T12:07:31;96466.91;;;17.54;78.12
56807;BME280;42687;42.524;12.052;2023-05-12T12:09:57;96464.66;;;17.68;77.38
56807;BME280;42687;42.524;12.052;2023-05-12T12:12:23;96454.84;;;17.89;76.90
56807;BME280;42687;42.524;12.052;2023-05-12T12:14:49;96472.81;;;18.44;76.63
56807;BME280;42687;42.524;12.052;2023-05-12T12:17:15;96487.41;;;19.05;71.93
56807;BME280;42687;42.524;12.052;2023-05-12T12:19:41;96486.47;;;19.24;74.39
56807;BME280;42687;42.524;12.052;2023-05-12T12:22:06;96494.25;;;19.36;74.49
56807;BME280;42687;42.524;12.052;2023-05-12T12:24:33;96491.00;;;19.42;74.66
56807;BME280;42687;42.524;12.052;2023-05-12T12:26:58;96490.22;;;19.31;74.88
56807;BME280;42687;42.524;12.052;2023-05-12T12:29:25;96498.53;;;18.63;76.51
56807;BME280;42687;42.524;12.052;2023-05-12T12:31:52;96453.03;;;17.99;77.09
56807;BME280;42687;42.524;12.052;2023-05-12T12:34:18;96483.06;;;18.39;77.23
56807;BME280;42687;42.524;12.052;2023-05-12T12:36:44;96479.34;;;18.87;73.04
56807;BME280;42687;42.524;12.052;2023-05-12T12:39:12;96473.56;;;19.02;76.39
56807;BME280;42687;42.524;12.052;2023-05-12T12:41:37;96470.66;;;19.41;75.25
56807;BME280;42687;42.524;12.052;2023-05-12T12:44:03;96484.19;;;19.29;75.29
56807;BME280;42687;42.524;12.052;2023-05-12T12:46:29;96473.94;;;18.41;76.36
56807;BME280;42687;42.524;12.052;2023-05-12T12:48:55;96488.03;;;17.65;77.60
56807;BME280;42687;42.524;12.052;2023-05-12T12:51:22;96481.84;;;16.75;78.82
56807;BME280;42687;42.524;12.052;2023-05-12T12:53:48;96480.66;;;16.06;79.48
56807;BME280;42687;42.524;12.052;2023-05-12T12:56:14;96485.72;;;15.55;80.43